createdAt,value
2017-04-13T00:00:53.611Z,61.66
2017-04-13T00:02:03.629Z,61.56
2017-04-13T00:03:13.021Z,61.56
2017-04-13T00:04:23.378Z,61.46
2017-04-13T00:05:33.408Z,61.75
2017-04-13T00:06:43.440Z,61.66
2017-04-13T00:07:53.771Z,61.85
2017-04-13T00:09:04.098Z,61.75
2017-04-13T00:10:14.426Z,61.94
2017-04-13T00:11:24.763Z,61.46
2017-04-13T00:12:35.131Z,61.66
2017-04-13T00:13:45.149Z,61.66
2017-04-13T00:14:55.481Z,61.56
2017-04-13T00:16:05.810Z,61.56
2017-04-13T00:17:16.152Z,61.66
2017-04-13T00:18:26.226Z,61.56
2017-04-13T00:19:36.565Z,61.66
2017-04-13T00:20:46.586Z,61.66
2017-04-13T00:21:56.913Z,61.56
2017-04-13T00:23:06.970Z,61.56
2017-04-13T00:24:17.006Z,61.37
2017-04-13T00:25:27.347Z,61.75
2017-04-13T00:26:37.680Z,61.56
2017-04-13T00:27:47.398Z,61.56
2017-04-13T00:28:57.763Z,61.56
2017-04-13T00:30:07.857Z,61.66
2017-04-13T00:31:17.884Z,61.37
2017-04-13T00:32:27.928Z,61.56
2017-04-13T00:33:37.996Z,61.46
2017-04-13T00:34:48.018Z,61.75
2017-04-13T00:35:57.738Z,61.66
2017-04-13T00:37:07.436Z,61.56
2017-04-13T00:38:17.773Z,61.56
2017-04-13T00:39:28.133Z,61.46
2017-04-13T00:40:38.506Z,61.46
2017-04-13T00:41:48.844Z,61.46
2017-04-13T00:42:58.565Z,61.34
2017-04-13T00:44:08.900Z,61.43
2017-04-13T00:45:19.236Z,61.34
2017-04-13T00:46:29.271Z,61.43
2017-04-13T00:47:39.602Z,61.34
2017-04-13T00:48:49.628Z,61.27
2017-04-13T00:49:59.701Z,61.43
2017-04-13T00:51:09.750Z,61.53
2017-04-13T00:52:20.097Z,61.43
2017-04-13T00:53:30.124Z,61.43
2017-04-13T00:54:39.844Z,61.43
2017-04-13T00:55:50.174Z,61.43
2017-04-13T00:57:00.193Z,61.53
2017-04-13T00:58:10.228Z,61.43
2017-04-13T00:59:20.608Z,61.53
2017-04-13T01:00:30.314Z,61.34
2017-04-13T01:01:40.360Z,61.53
2017-04-13T01:02:50.397Z,61.34
2017-04-13T01:04:00.745Z,61.34
2017-04-13T01:05:10.761Z,61.34
2017-04-13T01:06:21.087Z,61.43
2017-04-13T01:07:31.109Z,61.43
2017-04-13T01:08:41.145Z,61.24
2017-04-13T01:09:51.482Z,61.34
2017-04-13T01:11:01.832Z,61.43
2017-04-13T01:12:11.858Z,61.53
2017-04-13T01:13:22.193Z,61.53
2017-04-13T01:14:32.542Z,61.34
2017-04-13T01:15:42.560Z,61.53
2017-04-13T01:16:52.614Z,61.53
2017-04-13T01:18:02.633Z,61.5
2017-04-13T01:19:12.336Z,61.21
2017-04-13T01:20:22.353Z,61.4
2017-04-13T01:21:32.711Z,61.43
2017-04-13T01:22:43.108Z,61.4
2017-04-13T01:23:53.459Z,61.21
2017-04-13T01:25:03.785Z,61.5
2017-04-13T01:26:14.123Z,61.4
2017-04-13T01:27:24.461Z,61.4
2017-04-13T01:28:34.500Z,61.5
2017-04-13T01:29:44.538Z,61.4
2017-04-13T01:30:54.874Z,61.4
2017-04-13T01:32:04.900Z,61.5
2017-04-13T01:33:15.227Z,61.6
2017-04-13T01:34:25.616Z,61.6
2017-04-13T01:35:35.955Z,61.5
2017-04-13T01:36:45.991Z,61.6
2017-04-13T01:37:56.324Z,61.5
2017-04-13T01:39:06.663Z,61.5
2017-04-13T01:40:16.992Z,61.69
2017-04-13T01:41:27.331Z,61.5
2017-04-13T01:42:37.666Z,61.5
2017-04-13T01:43:48.019Z,61.69
2017-04-13T01:44:58.350Z,61.69
2017-04-13T01:46:08.683Z,61.6
2017-04-13T01:47:19.019Z,61.69
2017-04-13T01:48:28.729Z,61.5
2017-04-13T01:49:39.071Z,61.69
2017-04-13T01:50:49.418Z,61.6
2017-04-13T01:51:59.741Z,61.69
2017-04-13T01:53:09.455Z,61.4
2017-04-13T01:54:19.778Z,61.4
2017-04-13T01:55:29.807Z,61.5
2017-04-13T01:56:40.131Z,61.5
2017-04-13T01:57:50.515Z,61.4
2017-04-13T01:59:00.550Z,61.5
2017-04-13T02:00:10.573Z,61.4
2017-04-13T02:01:19.970Z,61.69
2017-04-13T02:02:29.989Z,61.88
2017-04-13T02:03:40.013Z,61.79
2017-04-13T02:04:50.340Z,61.79
2017-04-13T02:06:00.676Z,61.79
2017-04-13T02:07:11.013Z,61.6
2017-04-13T02:08:21.053Z,61.5
2017-04-13T02:09:31.080Z,61.69
2017-04-13T02:10:41.428Z,61.5
2017-04-13T02:11:51.141Z,61.6
2017-04-13T02:13:01.179Z,61.31
2017-04-13T02:14:11.534Z,61.5
2017-04-13T02:15:21.574Z,61.6
2017-04-13T02:16:31.595Z,61.6
2017-04-13T02:17:41.948Z,61.6
2017-04-13T02:18:52.301Z,61.4
2017-04-13T02:20:02.638Z,61.5
2017-04-13T02:21:12.650Z,61.6
2017-04-13T02:22:22.962Z,61.5
2017-04-13T02:23:32.977Z,61.5
2017-04-13T02:24:42.991Z,61.6
2017-04-13T02:25:53.327Z,61.6
2017-04-13T02:27:03.385Z,61.69
2017-04-13T02:28:13.712Z,61.5
2017-04-13T02:29:24.046Z,61.5
2017-04-13T02:30:33.762Z,61.6
2017-04-13T02:31:43.782Z,61.79
2017-04-13T02:32:54.121Z,61.4
2017-04-13T02:34:04.461Z,61.6
2017-04-13T02:35:14.795Z,61.6
2017-04-13T02:36:25.146Z,61.6
2017-04-13T02:37:35.470Z,61.31
2017-04-13T02:38:45.793Z,61.4
2017-04-13T02:39:56.126Z,61.31
2017-04-13T02:41:06.467Z,61.4
2017-04-13T02:42:16.830Z,61.6
2017-04-13T02:43:26.551Z,61.6
2017-04-13T02:44:36.934Z,61.6
2017-04-13T02:45:46.959Z,61.5
2017-04-13T02:46:56.967Z,61.6
2017-04-13T02:48:06.994Z,61.6
2017-04-13T02:49:17.051Z,61.6
2017-04-13T02:50:26.756Z,61.5
2017-04-13T02:51:37.095Z,61.5
2017-04-13T02:52:47.425Z,61.5
2017-04-13T02:53:57.756Z,61.21
2017-04-13T02:55:07.473Z,61.4
2017-04-13T02:56:17.801Z,61.5
2017-04-13T02:57:27.827Z,61.5
2017-04-13T02:58:37.857Z,61.6
2017-04-13T02:59:48.186Z,61.6
2017-04-13T03:00:58.548Z,61.88
2017-04-13T03:32:59.929Z,59.05
2017-04-13T03:34:09.932Z,60.1
2017-04-13T03:35:20.279Z,60.77
2017-04-13T03:36:30.599Z,61.54
2017-04-13T03:37:40.631Z,61.72
2017-04-13T03:38:50.709Z,62.11
2017-04-13T03:40:01.048Z,62.11
2017-04-13T03:41:11.427Z,62.49
2017-04-13T03:42:21.747Z,62.9
2017-04-13T03:43:31.771Z,62.81
2017-04-13T03:44:42.102Z,63
2017-04-13T03:45:52.129Z,63.03
2017-04-13T03:47:02.155Z,63.03
2017-04-13T03:48:12.478Z,62.84
2017-04-13T03:49:22.808Z,63.13
2017-04-13T03:50:33.140Z,62.97
2017-04-13T03:51:42.868Z,62.87
2017-04-13T03:52:53.203Z,63.16
2017-04-13T03:54:03.215Z,62.52
2017-04-13T03:55:13.544Z,62.43
2017-04-13T03:56:23.869Z,62.52
2017-04-13T03:57:34.198Z,62.81
2017-04-13T03:58:44.226Z,62.81
2017-04-13T03:59:54.568Z,62.43
2017-04-13T04:01:04.611Z,62.65
2017-04-13T04:02:14.317Z,62.84
2017-04-13T04:03:24.641Z,62.84
2017-04-13T04:04:34.670Z,62.93
2017-04-13T04:05:45.017Z,62.46
2017-04-13T04:06:55.029Z,62.55
2017-04-13T04:08:04.749Z,62.17
2017-04-13T04:09:14.799Z,62.17
2017-04-13T04:10:25.140Z,62.07
2017-04-13T04:11:35.475Z,62.26
2017-04-13T04:12:45.494Z,62.17
2017-04-13T04:13:55.254Z,62.07
2017-04-13T04:15:05.581Z,62.17
2017-04-13T04:16:15.913Z,62.55
2017-04-13T04:17:25.939Z,62.3
2017-04-13T04:18:36.331Z,62.49
2017-04-13T04:19:46.654Z,62.39
2017-04-13T04:20:56.671Z,62.1
2017-04-13T04:22:07.001Z,61.91
2017-04-13T04:23:17.388Z,61.82
2017-04-13T04:24:27.735Z,61.91
2017-04-13T04:25:38.071Z,62.1
2017-04-13T04:26:48.102Z,61.63
2017-04-13T04:27:58.435Z,62.01
2017-04-13T04:29:08.481Z,61.91
2017-04-13T04:30:18.817Z,62.1
2017-04-13T04:31:29.156Z,62.1
2017-04-13T04:32:39.506Z,61.91
2017-04-13T04:33:49.833Z,61.63
2017-04-13T04:35:00.152Z,61.72
2017-04-13T04:36:10.491Z,61.72
2017-04-13T04:37:20.821Z,61.82
2017-04-13T04:38:31.163Z,61.82
2017-04-13T04:39:41.183Z,61.72
2017-04-13T04:40:50.926Z,62.01
2017-04-13T04:42:01.251Z,61.63
2017-04-13T04:43:10.972Z,61.63
2017-04-13T04:44:21.309Z,61.82
2017-04-13T04:45:31.648Z,62.2
2017-04-13T04:46:41.973Z,61.72
2017-04-13T04:47:52.323Z,61.72
2017-04-13T04:49:02.666Z,61.63
2017-04-13T04:50:13.003Z,62.01
2017-04-13T04:51:23.350Z,61.91
2017-04-13T04:52:33.390Z,61.91
2017-04-13T04:53:43.780Z,61.91
2017-04-13T04:54:54.116Z,61.91
2017-04-13T04:56:04.147Z,62.1
2017-04-13T04:57:14.481Z,61.91
2017-04-13T04:58:24.534Z,62.1
2017-04-13T04:59:34.562Z,61.72
2017-04-13T05:00:44.896Z,61.82
2017-04-13T05:01:55.225Z,61.94
2017-04-13T05:03:05.552Z,61.91
2017-04-13T05:04:15.898Z,61.94
2017-04-13T05:05:26.235Z,61.85
2017-04-13T05:06:36.203Z,61.37
2017-04-13T05:07:46.498Z,62.04
2017-04-13T05:08:56.232Z,62.01
2017-04-13T05:10:06.566Z,62.01
2017-04-13T05:11:16.910Z,61.91
2017-04-13T05:12:27.261Z,62.49
2017-04-13T05:13:37.591Z,62.3
2017-04-13T05:14:47.913Z,62.2
2017-04-13T05:15:57.940Z,62.3
2017-04-13T05:17:08.303Z,62.2
2017-04-13T05:18:18.324Z,62.01
2017-04-13T05:19:28.347Z,62.3
2017-04-13T05:20:38.387Z,62.49
2017-04-13T05:21:48.723Z,62.49
2017-04-13T05:22:58.761Z,62.46
2017-04-13T05:24:08.782Z,62.39
2017-04-13T05:25:19.142Z,61.88
2017-04-13T05:26:28.849Z,62.17
2017-04-13T05:27:39.178Z,61.88
2017-04-13T05:28:49.191Z,62.07
2017-04-13T05:29:59.212Z,61.69
2017-04-13T05:31:09.574Z,61.69
2017-04-13T05:32:19.600Z,62.17
2017-04-13T05:33:29.945Z,62.17
2017-04-13T05:34:40.276Z,62.17
2017-04-13T05:35:50.295Z,61.98
2017-04-13T05:37:00.637Z,61.79
2017-04-13T05:38:10.972Z,61.79
2017-04-13T05:39:21.305Z,61.69
2017-04-13T05:40:31.328Z,61.88
2017-04-13T05:41:41.344Z,61.79
2017-04-13T05:42:51.685Z,61.88
2017-04-13T05:44:02.018Z,61.69
2017-04-13T05:45:12.354Z,61.98
2017-04-13T05:46:22.386Z,61.98
2017-04-13T05:47:32.767Z,61.69
2017-04-13T05:48:43.109Z,61.88
2017-04-13T05:49:53.546Z,61.98
2017-04-13T05:51:03.566Z,62.07
2017-04-13T05:52:13.594Z,62.07
2017-04-13T05:53:23.927Z,61.98
2017-04-13T05:54:34.264Z,61.6
2017-04-13T05:55:44.335Z,61.6
2017-04-13T05:56:54.695Z,61.4
2017-04-13T05:58:05.042Z,61.21
2017-04-13T06:04:37.162Z,61.53
2017-04-13T06:05:47.199Z,61.63
2017-04-13T06:06:57.530Z,61.4
2017-04-13T06:08:07.563Z,61.79
2017-04-13T06:09:17.896Z,61.88
2017-04-13T06:10:28.249Z,61.88
2017-04-13T06:11:38.276Z,61.88
2017-04-13T06:12:48.609Z,61.88
2017-04-13T06:13:58.947Z,62.07
2017-04-13T06:15:08.973Z,61.98
2017-04-13T06:16:18.693Z,61.88
2017-04-13T06:17:28.716Z,62.07
2017-04-13T06:18:38.745Z,61.88
2017-04-13T06:19:48.746Z,61.31
2017-04-13T06:20:59.078Z,61.4
2017-04-13T06:22:09.412Z,61.31
2017-04-13T06:23:19.429Z,61.53
2017-04-13T06:24:29.437Z,61.82
2017-04-13T06:25:39.463Z,61.53
2017-04-13T06:26:49.158Z,61.53
2017-04-13T06:27:59.181Z,61.72
2017-04-13T06:29:08.899Z,61.82
2017-04-13T06:30:19.214Z,61.82
2017-04-13T06:31:29.276Z,61.53
2017-04-13T06:32:39.608Z,61.53
2017-04-13T06:33:49.973Z,61.53
2017-04-13T06:35:00.294Z,61.53
2017-04-13T06:36:10.304Z,61.53
2017-04-13T06:37:20.627Z,61.82
2017-04-13T06:38:31.001Z,61.43
2017-04-13T06:39:41.325Z,61.53
2017-04-13T06:40:51.350Z,61.63
2017-04-13T06:42:01.706Z,61.82
2017-04-13T06:43:12.040Z,61.82
2017-04-13T06:44:22.382Z,61.63
2017-04-13T06:45:32.725Z,61.53
2017-04-13T06:46:43.038Z,61.72
2017-04-13T06:47:53.055Z,62.01
2017-04-13T06:49:03.378Z,61.72
2017-04-13T06:50:12.784Z,61.43
2017-04-13T06:51:22.811Z,61.72
2017-04-13T06:52:33.181Z,61.91
2017-04-13T06:53:43.196Z,61.53
2017-04-13T06:54:53.227Z,61.53
2017-04-13T06:56:03.242Z,61.53
2017-04-13T06:57:13.575Z,61.43
2017-04-13T06:58:23.917Z,61.72
2017-04-13T06:59:33.317Z,62.1
2017-04-13T07:00:43.353Z,61.91
2017-04-13T07:01:53.063Z,61.91
2017-04-13T07:03:03.384Z,61.72
2017-04-13T07:04:13.438Z,61.72
2017-04-13T07:05:23.462Z,61.82
2017-04-13T07:06:33.797Z,61.72
2017-04-13T07:07:43.814Z,61.72
2017-04-13T07:08:54.198Z,61.72
2017-04-13T07:10:04.225Z,61.91
2017-04-13T07:11:14.606Z,61.91
2017-04-13T07:12:24.630Z,61.72
2017-04-13T07:13:34.967Z,62.01
2017-04-13T07:14:45.301Z,62.2
2017-04-13T07:15:55.647Z,62.2
2017-04-13T07:17:05.359Z,62.1
2017-04-13T07:18:14.761Z,61.82
2017-04-13T07:19:24.471Z,61.82
2017-04-13T07:20:34.554Z,61.63
2017-04-13T07:21:44.571Z,62.1
2017-04-13T07:22:54.907Z,61.91
2017-04-13T07:24:05.239Z,61.91
2017-04-13T07:25:15.806Z,61.63
2017-04-13T07:26:25.531Z,61.24
2017-04-13T07:27:35.868Z,61.34
2017-04-13T07:28:45.943Z,61.53
2017-04-13T07:29:56.258Z,61.53
2017-04-13T07:31:06.287Z,61.43
2017-04-13T07:32:16.674Z,61.63
2017-04-13T07:33:26.707Z,61.53
2017-04-13T07:34:36.449Z,61.53
2017-04-13T07:35:46.501Z,61.43
2017-04-13T07:36:56.836Z,61.43
2017-04-13T07:38:07.211Z,61.63
2017-04-13T07:39:17.560Z,61.91
2017-04-13T07:40:26.978Z,60.99
2017-04-13T07:41:37.320Z,60.7
2017-04-13T07:42:47.662Z,60.79
2017-04-13T07:43:57.681Z,60.89
2017-04-13T07:45:08.026Z,61.27
2017-04-13T07:46:17.737Z,61.46
2017-04-13T07:47:28.073Z,61.37
2017-04-13T07:48:38.419Z,61.56
2017-04-13T07:49:48.761Z,62.01
2017-04-13T07:50:58.784Z,62.01
2017-04-13T07:52:09.115Z,62.1
2017-04-13T07:53:19.489Z,62.01
2017-04-13T07:54:29.844Z,61.34
2017-04-13T07:55:39.861Z,61.08
2017-04-13T07:56:50.188Z,60.99
2017-04-13T07:58:00.218Z,60.7
2017-04-13T07:59:10.546Z,60.79
2017-04-13T08:00:20.881Z,60.72
2017-04-13T08:01:31.219Z,60.92
2017-04-13T08:02:41.560Z,61.11
2017-04-13T08:03:51.901Z,60.92
2017-04-13T08:05:02.233Z,60.72
2017-04-13T08:06:12.580Z,60.72
2017-04-13T08:07:22.921Z,60.92
2017-04-13T08:08:33.249Z,61.88
2017-04-13T08:09:43.595Z,61.21
2017-04-13T08:10:53.612Z,61.11
2017-04-13T08:12:03.365Z,60.92
2017-04-13T08:13:13.719Z,60.66
2017-04-13T08:14:24.046Z,60.38
2017-04-13T08:15:34.066Z,60.85
2017-04-13T08:16:44.085Z,59.99
2017-04-13T08:17:54.110Z,60.5
2017-04-13T08:19:04.221Z,59.73
2017-04-13T08:20:14.547Z,60.02
2017-04-13T08:21:24.855Z,60.78
2017-04-13T08:22:35.192Z,61.17
2017-04-13T08:23:45.227Z,60.66
2017-04-13T08:24:55.258Z,60.75
2017-04-13T08:26:05.612Z,60.66
2017-04-13T08:27:15.641Z,60.85
2017-04-13T08:28:25.969Z,60.66
2017-04-13T08:29:36.314Z,60.47
2017-04-13T08:30:46.676Z,60.11
2017-04-13T08:31:57.018Z,60.11
2017-04-13T08:33:07.399Z,60.02
2017-04-13T08:34:17.421Z,60.4
2017-04-13T08:35:27.755Z,60.5
2017-04-13T08:36:38.076Z,60.6
2017-04-13T08:37:48.402Z,60.4
2017-04-13T08:38:58.424Z,60.11
2017-04-13T08:40:08.440Z,60.02
2017-04-13T08:41:18.458Z,60.34
2017-04-13T08:42:28.808Z,60.11
2017-04-13T08:43:39.175Z,61.08
2017-04-13T08:44:49.497Z,61.17
2017-04-13T08:45:59.828Z,60.85
2017-04-13T08:47:10.173Z,60.66
2017-04-13T08:48:20.498Z,60.95
2017-04-13T08:49:30.824Z,60.69
2017-04-13T08:50:41.160Z,60.11
2017-04-13T08:51:50.557Z,60.53
2017-04-13T08:53:00.581Z,60.53
2017-04-13T08:54:10.613Z,60.24
2017-04-13T08:55:20.964Z,60.14
2017-04-13T08:56:31.306Z,60.63
2017-04-13T08:57:41.331Z,60.82
2017-04-13T08:58:51.677Z,60.43
2017-04-13T09:00:02.022Z,60.82
2017-04-13T09:01:12.361Z,60.82
2017-04-13T09:02:22.375Z,60.72
2017-04-13T09:03:32.100Z,60.72
2017-04-13T09:04:42.442Z,60.98
2017-04-13T09:05:52.154Z,61.08
2017-04-13T09:07:02.180Z,61.81
2017-04-13T09:08:12.552Z,61.62
2017-04-13T09:09:21.948Z,61.52
2017-04-13T09:10:32.277Z,61.59
2017-04-13T09:11:42.659Z,61.62
2017-04-13T09:12:52.999Z,61.49
2017-04-13T09:14:02.705Z,61.69
2017-04-13T09:15:12.456Z,61.88
2017-04-13T09:16:22.480Z,61.98
2017-04-13T09:17:32.501Z,62.07
2017-04-13T09:18:42.533Z,62.16
2017-04-13T09:19:52.559Z,61.78
2017-04-13T09:21:02.271Z,61.49
2017-04-13T09:22:12.618Z,61.4
2017-04-13T09:23:22.952Z,61.49
2017-04-13T09:24:33.282Z,61.49
2017-04-13T09:25:43.322Z,61.59
2017-04-13T09:26:53.692Z,61.46
2017-04-13T09:28:04.047Z,61.75
2017-04-13T09:29:14.081Z,62.04
2017-04-13T09:30:24.420Z,61.94
2017-04-13T09:31:34.738Z,61.94
2017-04-13T09:32:45.065Z,61.75
2017-04-13T09:33:55.394Z,61.85
2017-04-13T09:35:05.422Z,61.46
2017-04-13T09:36:15.773Z,61.37
2017-04-13T09:37:26.100Z,61.46
2017-04-13T09:38:36.419Z,61.56
2017-04-13T09:39:46.435Z,61.75
2017-04-13T09:40:56.776Z,61.46
2017-04-13T09:42:07.116Z,61.85
2017-04-13T09:43:17.458Z,62.1
2017-04-13T09:44:27.809Z,62.2
2017-04-13T09:45:38.149Z,61.98
2017-04-13T09:46:48.499Z,61.98
2017-04-13T09:47:58.830Z,61.98
2017-04-13T09:49:09.161Z,61.88
2017-04-13T09:50:19.488Z,62.33
2017-04-13T09:51:29.506Z,62.23
2017-04-13T09:52:39.837Z,62.43
2017-04-13T09:53:50.173Z,62.04
2017-04-13T09:55:00.498Z,61.91
2017-04-13T09:56:10.838Z,61.82
2017-04-13T09:57:21.170Z,62.4
2017-04-13T09:58:31.501Z,62.11
2017-04-13T09:59:41.847Z,62.08
2017-04-13T10:00:51.879Z,61.88
2017-04-13T10:02:01.901Z,62.08
2017-04-13T10:03:12.234Z,62.37
2017-04-13T10:04:22.551Z,62.14
2017-04-13T10:05:32.876Z,62.33
2017-04-13T10:06:43.234Z,61.95
2017-04-13T10:07:53.581Z,61.95
2017-04-13T10:09:03.287Z,61.95
2017-04-13T10:10:13.613Z,62.04
2017-04-13T10:11:23.941Z,62.14
2017-04-13T10:12:34.285Z,62.04
2017-04-13T10:13:44.623Z,62.14
2017-04-13T10:14:54.650Z,62.24
2017-04-13T10:16:04.715Z,61.47
2017-04-13T10:17:14.428Z,61.19
2017-04-13T10:18:24.762Z,60.71
2017-04-13T10:19:34.802Z,60.55
2017-04-13T10:20:44.849Z,60.16
2017-04-13T10:21:55.176Z,60.16
2017-04-13T10:23:05.530Z,60.16
2017-04-13T10:24:15.569Z,60.55
2017-04-13T10:25:25.586Z,60.1
2017-04-13T10:26:35.912Z,60.67
2017-04-13T10:27:46.246Z,60.29
2017-04-13T10:28:56.591Z,59.81
2017-04-13T10:30:06.924Z,60
2017-04-13T10:31:16.942Z,60.13
2017-04-13T10:32:26.981Z,60.1
2017-04-13T10:33:37.023Z,60.48
2017-04-13T10:34:47.357Z,60.29
2017-04-13T10:35:57.697Z,60.67
2017-04-13T10:37:07.734Z,60.58
2017-04-13T10:38:18.070Z,60.48
2017-04-13T10:39:28.441Z,60.38
2017-04-13T10:40:38.480Z,60.67
2017-04-13T10:41:48.810Z,61.02
2017-04-13T10:42:58.840Z,60.93
2017-04-13T10:44:08.544Z,61.41
2017-04-13T10:45:18.874Z,61.31
2017-04-13T10:46:28.897Z,61.79
2017-04-13T10:47:39.245Z,61.57
2017-04-13T10:48:49.265Z,61.76
2017-04-13T10:49:59.279Z,61.57
2017-04-13T10:51:09.310Z,61.28
2017-04-13T10:52:19.641Z,61.51
2017-04-13T10:53:29.654Z,60.83
2017-04-13T10:54:39.975Z,60.64
2017-04-13T10:55:50.011Z,60.48
2017-04-13T10:57:00.030Z,59.81
2017-04-13T10:58:10.353Z,60.22
2017-04-13T10:59:20.056Z,59.84
2017-04-13T11:00:30.403Z,59.68
2017-04-13T11:01:40.431Z,59.3
2017-04-13T11:02:50.472Z,59.23
2017-04-13T11:04:00.798Z,59.04
2017-04-13T11:05:10.820Z,58.87
2017-04-13T11:06:21.157Z,58.94
2017-04-13T11:07:31.508Z,58.97
2017-04-13T11:08:42.829Z,58.78
2017-04-13T11:09:53.176Z,58.62
2017-04-13T11:11:03.199Z,58.62
2017-04-13T11:12:13.540Z,58.33
2017-04-13T11:13:23.872Z,58.84
2017-04-13T11:14:33.891Z,58.55
2017-04-13T11:15:43.930Z,58.94
2017-04-13T11:16:53.661Z,59.32
2017-04-13T11:18:03.681Z,59.12
2017-04-13T11:19:14.012Z,59.25
2017-04-13T11:20:24.088Z,59.16
2017-04-13T11:21:34.434Z,59.64
2017-04-13T11:22:44.152Z,59.89
2017-04-13T11:23:53.852Z,60.18
2017-04-13T11:25:03.559Z,60.82
2017-04-13T11:26:13.582Z,60.82
2017-04-13T11:27:23.298Z,60.72
2017-04-13T11:28:33.659Z,60.7
2017-04-13T11:29:44.016Z,60.99
2017-04-13T11:30:54.044Z,60.7
2017-04-13T11:32:04.400Z,61.02
2017-04-13T11:33:14.420Z,60.7
2017-04-13T11:34:24.767Z,60.7
2017-04-13T11:35:34.781Z,62.04
2017-04-13T11:36:45.106Z,61.53
2017-04-13T11:37:54.823Z,61.72
2017-04-13T11:39:04.851Z,61.72
2017-04-13T11:40:14.866Z,61.34
2017-04-13T11:41:24.580Z,60.96
2017-04-13T11:42:34.314Z,60.76
2017-04-13T11:43:44.643Z,60.28
2017-04-13T11:44:54.982Z,60.38
2017-04-13T11:46:05.012Z,60.67
2017-04-13T11:47:15.370Z,60.6
2017-04-13T11:48:25.710Z,60.12
2017-04-13T11:49:36.096Z,59.86
2017-04-13T11:50:46.442Z,59.86
2017-04-13T11:51:56.459Z,60.15
2017-04-13T11:53:06.484Z,60.15
2017-04-13T11:54:16.824Z,60.05
2017-04-13T11:55:27.166Z,59.86
2017-04-13T11:56:37.493Z,59.96
2017-04-13T11:57:47.518Z,60.15
2017-04-13T11:58:57.535Z,60.35
2017-04-13T12:00:07.868Z,59.09
2017-04-13T12:01:18.268Z,58.87
2017-04-13T12:02:28.605Z,58.58
2017-04-13T12:03:38.639Z,58.61
2017-04-13T12:04:48.675Z,58.22
2017-04-13T12:05:59.218Z,59.09
2017-04-13T12:07:09.240Z,59.19
2017-04-13T12:08:18.956Z,59.47
2017-04-13T12:09:28.985Z,59.19
2017-04-13T12:10:39.013Z,59.19
2017-04-13T12:11:49.043Z,59.19
2017-04-13T12:12:59.064Z,58.64
2017-04-13T12:14:09.083Z,58.37
2017-04-13T12:15:19.103Z,58.57
2017-04-13T12:16:28.514Z,58.4
2017-04-13T12:17:38.851Z,57.83
2017-04-13T12:18:49.213Z,56.44
2017-04-13T12:19:59.575Z,56.57
2017-04-13T12:21:09.598Z,56.52
2017-04-13T12:22:19.944Z,56.91
2017-04-13T12:23:29.973Z,57.27
2017-04-13T12:24:40.301Z,57.85
2017-04-13T12:25:50.644Z,58.88
2017-04-13T12:27:00.991Z,60.13
2017-04-13T12:28:11.022Z,60.55
2017-04-13T12:29:21.353Z,60.42
2017-04-13T12:30:31.680Z,61.16
2017-04-13T12:31:42.018Z,61.16
2017-04-13T12:32:52.356Z,60.97
2017-04-13T12:34:02.703Z,60.88
2017-04-13T12:35:13.029Z,60.33
2017-04-13T12:36:23.350Z,60.33
2017-04-13T12:37:33.693Z,60.62
2017-04-13T12:38:44.060Z,60.69
2017-04-13T12:39:54.402Z,60.39
2017-04-13T12:41:04.435Z,60.49
2017-04-13T12:42:14.785Z,60.39
2017-04-13T12:43:24.805Z,60.49
2017-04-13T12:44:34.514Z,60.49
2017-04-13T12:45:44.541Z,60.59
2017-04-13T12:46:54.885Z,60.75
2017-04-13T12:48:05.268Z,61.2
2017-04-13T12:49:15.610Z,61.58
2017-04-13T12:50:25.931Z,61.65
2017-04-13T12:51:36.281Z,61.65
2017-04-13T12:52:46.314Z,61.55
2017-04-13T12:53:56.025Z,61.36
2017-04-13T12:55:06.358Z,61.65
2017-04-13T12:56:16.718Z,60.88
2017-04-13T12:57:27.040Z,60.4
2017-04-13T12:58:37.073Z,60.24
2017-04-13T12:59:47.100Z,59.95
2017-04-13T13:00:57.577Z,59.95
2017-04-13T13:02:08.900Z,60.27
2017-04-13T13:03:19.271Z,60.34
2017-04-13T13:04:29.690Z,60.43
2017-04-13T13:05:40.027Z,60.14
2017-04-13T13:06:50.359Z,60.24
2017-04-13T13:08:00.391Z,60.46
2017-04-13T13:09:10.746Z,59.12
2017-04-13T13:10:21.077Z,58.37
2017-04-13T13:11:31.418Z,58.7
2017-04-13T13:12:41.750Z,58.7
2017-04-13T13:13:52.094Z,58.53
2017-04-13T13:15:02.437Z,57.95
2017-04-13T13:16:12.473Z,58.17
2017-04-13T13:17:22.818Z,58.95
2017-04-13T13:18:33.147Z,59.2
2017-04-13T13:19:43.189Z,60.07
2017-04-13T13:20:53.225Z,60.24
2017-04-13T13:22:03.247Z,60.59
2017-04-13T13:23:13.587Z,60.85
2017-04-13T13:24:23.934Z,61.04
2017-04-13T13:25:34.274Z,61.23
2017-04-13T13:26:44.623Z,61.2
2017-04-13T13:27:54.964Z,61.49
2017-04-13T13:29:05.286Z,61.08
2017-04-13T13:30:15.321Z,60.6
2017-04-13T13:31:25.036Z,60.98
2017-04-13T13:32:35.388Z,60.47
2017-04-13T13:33:45.459Z,60.66
2017-04-13T13:34:55.491Z,59.7
2017-04-13T13:36:05.829Z,60.08
2017-04-13T13:37:16.181Z,59.99
2017-04-13T13:38:26.532Z,60.18
2017-04-13T13:39:36.236Z,60.08
2017-04-13T13:40:46.263Z,60.15
2017-04-13T13:41:56.599Z,60.35
2017-04-13T13:43:06.011Z,60.44
2017-04-13T13:44:16.339Z,60.35
2017-04-13T13:45:26.681Z,60.63
2017-04-13T13:46:36.399Z,60.5
2017-04-13T13:47:46.734Z,60.41
2017-04-13T13:48:57.043Z,60.7
2017-04-13T13:50:07.073Z,60.7
2017-04-13T13:51:17.414Z,60.09
2017-04-13T13:52:27.747Z,60.12
2017-04-13T13:53:38.311Z,60.12
2017-04-13T13:54:48.029Z,59.83
2017-04-13T13:55:58.350Z,59.09
2017-04-13T13:57:08.378Z,59.29
2017-04-13T13:58:18.719Z,58.74
2017-04-13T13:59:29.063Z,57.81
2017-04-13T14:00:39.408Z,57.45
2017-04-13T14:01:49.451Z,56.81
2017-04-13T14:02:59.813Z,57.2
2017-04-13T14:04:09.836Z,57.1
2017-04-13T14:05:20.174Z,57.77
2017-04-13T14:06:30.198Z,58.64
2017-04-13T14:07:39.949Z,59.19
2017-04-13T14:08:50.306Z,59.92
2017-04-13T14:10:00.332Z,59.64
2017-04-13T14:11:10.664Z,59.73
2017-04-13T14:12:21.011Z,59.34
2017-04-13T14:13:31.366Z,59.19
2017-04-13T14:14:41.709Z,59.38
2017-04-13T14:15:52.048Z,60.4
2017-04-13T14:17:02.383Z,59.92
2017-04-13T14:18:12.725Z,60.31
2017-04-13T14:19:22.747Z,60.31
2017-04-13T14:20:33.120Z,60.18
2017-04-13T14:21:43.472Z,59.92
2017-04-13T14:22:53.496Z,59.38
2017-04-13T14:24:03.832Z,59.28
2017-04-13T14:25:14.165Z,58.92
2017-04-13T14:26:23.882Z,59.12
2017-04-13T14:27:33.922Z,59.12
2017-04-13T14:28:44.268Z,59.22
2017-04-13T14:29:54.633Z,59.12
2017-04-13T14:31:04.709Z,59.12
2017-04-13T14:32:15.070Z,58.64
2017-04-13T14:33:25.422Z,57.8
2017-04-13T14:34:35.758Z,57.92
2017-04-13T14:35:46.095Z,57.28
2017-04-13T14:36:56.118Z,57.09
2017-04-13T14:38:06.471Z,57.12
2017-04-13T14:39:16.497Z,57.12
2017-04-13T14:40:26.542Z,57.21
2017-04-13T14:41:36.903Z,57.6
2017-04-13T14:42:46.925Z,57.72
2017-04-13T14:43:56.973Z,57.82
2017-04-13T14:45:07.322Z,57.53
2017-04-13T14:46:17.688Z,57.82
2017-04-13T14:47:27.725Z,57.82
2017-04-13T14:48:38.060Z,58.37
2017-04-13T14:49:48.401Z,58.85
2017-04-13T14:50:58.120Z,59.3
2017-04-13T14:52:08.475Z,59.2
2017-04-13T14:53:18.836Z,59.3
2017-04-13T14:54:28.878Z,60.14
2017-04-13T14:55:38.964Z,60.69
2017-04-13T14:56:49.314Z,61.23
2017-04-13T14:57:59.363Z,61.2
2017-04-13T14:59:09.721Z,61.2
2017-04-13T15:00:19.752Z,61.11
2017-04-13T15:01:30.083Z,61.46
2017-04-13T15:02:40.420Z,61.84
2017-04-13T15:03:50.776Z,61.65
2017-04-13T15:05:00.518Z,61.62
2017-04-13T15:06:10.556Z,61.81
2017-04-13T15:07:20.909Z,61.52
2017-04-13T15:08:31.263Z,61.69
2017-04-13T15:09:41.642Z,61.69
2017-04-13T15:10:51.356Z,61.11
2017-04-13T15:12:01.741Z,60.92
2017-04-13T15:13:12.091Z,60.72
2017-04-13T15:14:22.436Z,60.85
2017-04-13T15:15:32.773Z,60.08
2017-04-13T15:16:42.799Z,60.08
2017-04-13T15:17:52.523Z,60.66
2017-04-13T15:19:02.860Z,60.72
2017-04-13T15:20:13.233Z,60.44
2017-04-13T15:21:23.573Z,60.72
2017-04-13T15:22:33.908Z,60.82
2017-04-13T15:23:43.941Z,60.7
2017-04-13T15:24:54.292Z,60.79
2017-04-13T15:26:04.316Z,60.79
2017-04-13T15:27:14.658Z,60.79
2017-04-13T15:28:25.003Z,61.05
2017-04-13T15:29:35.029Z,60.89
2017-04-13T15:30:45.383Z,60.76
2017-04-13T15:31:55.457Z,60.67
2017-04-13T15:33:05.817Z,61.05
2017-04-13T15:34:15.214Z,60.67
2017-04-13T15:35:25.271Z,60.76
2017-04-13T15:36:35.606Z,61.05
2017-04-13T15:37:45.628Z,61.24
2017-04-13T15:38:55.974Z,61.98
2017-04-13T15:40:06.306Z,61.4
2017-04-13T15:41:16.661Z,61.69
2017-04-13T15:42:26.695Z,61.5
2017-04-13T15:43:37.080Z,61.4
2017-04-13T15:44:47.417Z,61.5
2017-04-13T15:45:57.762Z,61.21